Time;durP1;ratioP1;P1;durP2;ratioP2;P2;SDS_P1;SDS_P2;PMS_P1;PMS_P2;Temp;Humidity;BMP_temperature;BMP_pressure;BME280_temperature;BME280_humidity;BME280_pressure;Samples;Min_cycle;Max_cycle;Signal;HPM_P1;HPM_P2
2023/12/24 00:00:13;;;;;;;1.02;0.10;;;;;;;;;;5026484;28;20075;-85
2023/12/24 00:02:39;;;;;;;0.20;0.10;;;;;;;;;;5031444;28;21011;-87
2023/12/24 00:05:13;;;;;;;0.20;0.10;;;;;;;;;;5025974;28;20124;-85
2023/12/24 00:07:57;;;;;;;0.20;0.10;;;;;;;;;;5029507;28;20116;-86
2023/12/24 00:10:38;;;;;;;0.28;0.20;;;;;;;;;;5041333;28;20036;-87
2023/12/24 00:13:04;;;;;;;0.20;0.10;;;;;;;;;;5031724;28;20044;-83
2023/12/24 00:15:30;;;;;;;0.20;0.10;;;;;;;;;;5029205;28;20036;-85
2023/12/24 00:18:04;;;;;;;0.20;0.00;;;;;;;;;;5025156;28;20154;-87
2023/12/24 00:20:33;;;;;;;0.20;0.10;;;;;;;;;;5028309;28;20508;-85
2023/12/24 00:23:28;;;;;;;0.20;0.10;;;;;;;;;;5028766;28;20577;-86
2023/12/24 00:25:57;;;;;;;0.20;0.10;;;;;;;;;;5026714;28;20041;-87
2023/12/24 00:28:23;;;;;;;0.20;0.08;;;;;;;;;;5041099;28;20124;-86
2023/12/24 00:30:49;;;;;;;0.20;0.10;;;;;;;;;;5026247;28;20040;-85
2023/12/24 00:33:15;;;;;;;0.20;0.10;;;;;;;;;;5037143;28;20095;-84
2023/12/24 00:35:41;;;;;;;0.20;0.00;;;;;;;;;;5026657;28;20102;-85
2023/12/24 00:38:07;;;;;;;0.20;0.00;;;;;;;;;;5039682;28;20214;-85
2023/12/24 00:40:34;;;;;;;0.20;0.00;;;;;;;;;;5042667;28;20036;-88
2023/12/24 00:43:01;;;;;;;0.20;0.10;;;;;;;;;;5038688;28;20634;-82
2023/12/24 00:45:31;;;;;;;0.20;0.03;;;;;;;;;;5037421;28;20037;-87
2023/12/24 00:48:03;;;;;;;0.80;0.80;;;;;;;;;;5026101;28;20535;-85
2023/12/24 00:50:29;;;;;;;0.20;0.03;;;;;;;;;;5026001;28;20045;-88
2023/12/24 00:53:05;;;;;;;0.20;0.10;;;;;;;;;;5040798;28;20032;-84
2023/12/24 00:55:32;;;;;;;0.20;0.10;;;;;;;;;;5024510;28;20071;-86
2023/12/24 00:58:00;;;;;;;0.20;0.00;;;;;;;;;;5042433;28;20040;-84
2023/12/24 01:00:26;;;;;;;0.20;0.10;;;;;;;;;;5038329;28;20048;-88
2023/12/24 01:02:55;;;;;;;0.20;0.00;;;;;;;;;;5040321;28;20044;-88
2023/12/24 01:05:30;;;;;;;1.63;0.88;;;;;;;;;;5040621;28;20037;-85
2023/12/24 01:07:59;;;;;;;0.20;0.03;;;;;;;;;;5030811;28;20431;-85
2023/12/24 01:10:25;;;;;;;0.20;0.00;;;;;;;;;;5039131;28;20520;-85
2023/12/24 01:12:51;;;;;;;1.00;0.95;;;;;;;;;;5041099;28;20037;-84
2023/12/24 01:20:21;;;;;;;0.20;0.10;;;;;;;;;;5026727;28;20416;-88
2023/12/24 01:22:47;;;;;;;0.20;0.10;;;;;;;;;;4993021;28;20084;-86
2023/12/24 01:25:14;;;;;;;0.20;0.00;;;;;;;;;;4994362;28;20442;-87
2023/12/24 01:27:43;;;;;;;0.20;0.00;;;;;;;;;;4978696;28;20061;-88
2023/12/24 01:30:19;;;;;;;0.20;0.10;;;;;;;;;;4977899;28;20037;-88
2023/12/24 01:32:49;;;;;;;0.20;0.00;;;;;;;;;;4994422;28;20072;-87
2023/12/24 01:35:18;;;;;;;0.20;0.10;;;;;;;;;;4976222;28;20469;-87
2023/12/24 01:37:56;;;;;;;0.20;0.00;;;;;;;;;;4973433;28;20065;-84
2023/12/24 01:40:25;;;;;;;0.20;0.10;;;;;;;;;;4975743;28;20107;-87
2023/12/24 01:42:51;;;;;;;0.20;0.05;;;;;;;;;;4993715;28;20074;-84
2023/12/24 01:45:20;;;;;;;0.20;0.00;;;;;;;;;;4974826;28;20112;-85
2023/12/24 01:47:46;;;;;;;0.20;0.10;;;;;;;;;;4969708;28;20050;-85
2023/12/24 01:50:12;;;;;;;0.20;0.10;;;;;;;;;;5007524;28;20065;-86
2023/12/24 01:52:44;;;;;;;0.20;0.10;;;;;;;;;;4971255;28;20526;-88
2023/12/24 01:55:16;;;;;;;0.20;0.00;;;;;;;;;;4988429;28;20046;-87
2023/12/24 01:57:51;;;;;;;0.20;0.00;;;;;;;;;;4988898;28;20100;-84
2023/12/24 02:00:19;;;;;;;0.40;0.10;;;;;;;;;;4988142;28;20110;-86
2023/12/24 02:02:48;;;;;;;0.20;0.10;;;;;;;;;;4989930;28;20053;-86
2023/12/24 02:05:15;;;;;;;0.20;0.10;;;;;;;;;;4974420;28;20037;-84
2023/12/24 02:07:47;;;;;;;0.20;0.00;;;;;;;;;;4972338;28;20092;-89
2023/12/24 02:10:22;;;;;;;0.20;0.08;;;;;;;;;;4993291;28;20095;-86
2023/12/24 02:12:48;;;;;;;0.20;0.00;;;;;;;;;;4968739;28;20486;-85
2023/12/24 02:15:17;;;;;;;0.20;0.08;;;;;;;;;;4989127;28;20121;-85
2023/12/24 02:18:02;;;;;;;0.20;0.00;;;;;;;;;;4985742;28;20337;-86
2023/12/24 02:20:40;;;;;;;0.20;0.10;;;;;;;;;;4975559;28;20044;-87
2023/12/24 02:23:09;;;;;;;0.20;0.10;;;;;;;;;;4990703;28;20049;-86
2023/12/24 02:25:46;;;;;;;0.20;0.10;;;;;;;;;;4984928;28;20088;-87
2023/12/24 02:28:20;;;;;;;0.20;0.10;;;;;;;;;;4987083;28;20041;-87
2023/12/24 02:30:53;;;;;;;0.20;0.10;;;;;;;;;;4989005;28;20073;-88
2023/12/24 02:33:27;;;;;;;0.20;0.00;;;;;;;;;;4987090;28;20132;-84
2023/12/24 02:35:57;;;;;;;0.20;0.00;;;;;;;;;;4978319;28;20042;-84
2023/12/24 02:38:25;;;;;;;0.20;0.00;;;;;;;;;;4977213;28;20054;-86
2023/12/24 02:40:59;;;;;;;0.20;0.00;;;;;;;;;;4995127;28;20049;-85
2023/12/24 02:43:27;;;;;;;0.20;0.00;;;;;;;;;;4985060;28;20356;-87
2023/12/24 02:45:59;;;;;;;15.57;0.57;;;;;;;;;;4991050;28;20038;-86
2023/12/24 02:48:31;;;;;;;0.20;0.10;;;;;;;;;;5007829;28;20038;-87
2023/12/24 02:51:00;;;;;;;0.60;0.20;;;;;;;;;;4978608;28;20098;-86
2023/12/24 02:53:29;;;;;;;0.20;0.05;;;;;;;;;;4991221;28;20044;-86
2023/12/24 02:56:01;;;;;;;0.20;0.10;;;;;;;;;;4992210;28;20026;-87
2023/12/24 02:58:30;;;;;;;0.20;0.00;;;;;;;;;;4997773;28;20280;-86
2023/12/24 03:00:56;;;;;;;0.20;0.00;;;;;;;;;;4976117;28;20060;-86
2023/12/24 03:03:25;;;;;;;0.20;0.10;;;;;;;;;;4972945;28;20050;-84
2023/12/24 03:05:59;;;;;;;2.43;1.50;;;;;;;;;;4983493;28;20037;-84
2023/12/24 03:08:37;;;;;;;0.20;0.10;;;;;;;;;;4992667;28;20038;-88
2023/12/24 03:11:18;;;;;;;0.77;0.65;;;;;;;;;;4978855;28;20232;-87
2023/12/24 03:13:53;;;;;;;0.20;0.10;;;;;;;;;;5010625;28;20034;-85
2023/12/24 03:16:25;;;;;;;0.20;0.10;;;;;;;;;;4973602;28;20049;-87
2023/12/24 03:18:57;;;;;;;0.20;0.20;;;;;;;;;;4989918;28;20045;-87
2023/12/24 03:21:29;;;;;;;0.20;0.00;;;;;;;;;;4979166;28;20524;-88
2023/12/24 03:24:02;;;;;;;0.20;0.00;;;;;;;;;;4973840;28;20046;-89
2023/12/24 03:26:33;;;;;;;0.20;0.00;;;;;;;;;;4975717;28;20285;-85
2023/12/24 03:29:02;;;;;;;0.20;0.10;;;;;;;;;;4990316;28;20128;-85
2023/12/24 03:31:31;;;;;;;0.20;0.00;;;;;;;;;;4972498;28;20096;-87
2023/12/24 03:33:57;;;;;;;0.20;0.00;;;;;;;;;;4994288;28;20068;-87
2023/12/24 03:36:27;;;;;;;0.20;0.10;;;;;;;;;;4974438;28;20045;-88
2023/12/24 03:38:53;;;;;;;0.20;0.00;;;;;;;;;;4973349;28;20038;-87
2023/12/24 03:41:25;;;;;;;0.20;0.00;;;;;;;;;;4994322;28;20043;-85
2023/12/24 03:43:51;;;;;;;0.20;0.00;;;;;;;;;;4989773;28;20093;-86
2023/12/24 03:46:20;;;;;;;0.20;0.00;;;;;;;;;;4972364;28;20075;-87
2023/12/24 03:48:47;;;;;;;0.20;0.00;;;;;;;;;;4987074;28;20096;-87
2023/12/24 03:51:18;;;;;;;0.20;0.00;;;;;;;;;;4975203;28;20088;-85
2023/12/24 03:53:47;;;;;;;0.20;0.05;;;;;;;;;;4967825;28;20042;-87
2023/12/24 03:56:14;;;;;;;0.20;0.00;;;;;;;;;;4986406;28;20045;-86
2023/12/24 03:59:00;;;;;;;0.20;0.00;;;;;;;;;;4974344;28;20096;-89
2023/12/24 04:01:32;;;;;;;0.20;0.10;;;;;;;;;;4973593;28;20102;-88
2023/12/24 04:04:03;;;;;;;0.20;0.00;;;;;;;;;;4975128;28;20042;-87
2023/12/24 04:06:29;;;;;;;0.40;0.13;;;;;;;;;;4973994;28;20555;-88
2023/12/24 04:09:01;;;;;;;0.20;0.10;;;;;;;;;;4990461;28;20483;-87
2023/12/24 04:11:27;;;;;;;0.20;0.00;;;;;;;;;;4972787;28;20072;-87
2023/12/24 04:13:53;;;;;;;0.20;0.10;;;;;;;;;;4970443;28;20030;-86
2023/12/24 04:16:19;;;;;;;0.20;0.08;;;;;;;;;;4986168;28;20430;-88
2023/12/24 04:18:51;;;;;;;0.20;0.00;;;;;;;;;;4985210;28;20048;-87
2023/12/24 04:21:17;;;;;;;0.20;0.00;;;;;;;;;;4988189;28;20494;-87
2023/12/24 04:23:46;;;;;;;0.20;0.10;;;;;;;;;;4979066;28;20069;-86
2023/12/24 04:26:21;;;;;;;0.20;0.00;;;;;;;;;;4968656;28;20496;-86
2023/12/24 04:28:58;;;;;;;0.20;0.10;;;;;;;;;;4989315;28;20545;-88
2023/12/24 04:31:24;;;;;;;0.20;0.00;;;;;;;;;;4977397;28;20478;-87
2023/12/24 04:33:53;;;;;;;0.20;0.00;;;;;;;;;;4986604;28;20112;-88
2023/12/24 04:39:19;;;;;;;0.20;0.00;;;;;;;;;;4990615;28;20430;-88
2023/12/24 04:42:06;;;;;;;0.20;0.00;;;;;;;;;;5007093;28;20045;-85
2023/12/24 04:44:47;;;;;;;0.20;0.10;;;;;;;;;;4990920;28;20047;-89
2023/12/24 04:47:15;;;;;;;0.20;0.10;;;;;;;;;;4984908;28;20092;-85
2023/12/24 04:49:50;;;;;;;0.20;0.00;;;;;;;;;;4974698;28;20119;-87
2023/12/24 04:52:22;;;;;;;0.20;0.00;;;;;;;;;;4972812;28;20042;-87
2023/12/24 04:54:54;;;;;;;0.20;0.00;;;;;;;;;;4973699;28;20053;-89
2023/12/24 04:57:33;;;;;;;0.20;0.10;;;;;;;;;;4994153;28;20034;-86
2023/12/24 04:59:59;;;;;;;0.20;0.10;;;;;;;;;;4975771;28;20049;-87
2023/12/24 05:02:28;;;;;;;0.20;0.00;;;;;;;;;;4988203;28;20038;-86
2023/12/24 05:04:57;;;;;;;0.20;0.10;;;;;;;;;;4992252;28;20038;-86
2023/12/24 05:07:29;;;;;;;0.20;0.17;;;;;;;;;;4979799;28;20513;-85
2023/12/24 05:10:02;;;;;;;0.20;0.00;;;;;;;;;;4975866;28;20050;-87
2023/12/24 05:12:28;;;;;;;0.20;0.00;;;;;;;;;;4978019;28;20524;-85
2023/12/24 05:14:54;;;;;;;0.20;0.10;;;;;;;;;;4978644;28;20041;-85
2023/12/24 05:17:31;;;;;;;0.20;0.00;;;;;;;;;;4974883;28;20052;-88
2023/12/24 05:19:57;;;;;;;0.20;0.00;;;;;;;;;;4992020;28;20038;-86
2023/12/24 05:22:32;;;;;;;0.20;0.00;;;;;;;;;;4974422;28;20411;-87
2023/12/24 05:25:01;;;;;;;0.20;0.20;;;;;;;;;;4994534;28;20042;-85
2023/12/24 05:27:34;;;;;;;0.20;0.10;;;;;;;;;;4976312;28;20454;-87
2023/12/24 05:30:03;;;;;;;0.20;0.05;;;;;;;;;;4984018;28;20094;-85
2023/12/24 05:32:36;;;;;;;0.20;0.10;;;;;;;;;;4975374;28;20062;-85
2023/12/24 05:35:02;;;;;;;0.20;0.10;;;;;;;;;;4993987;28;20511;-88
2023/12/24 05:37:28;;;;;;;0.20;0.03;;;;;;;;;;5008092;28;20517;-89
2023/12/24 05:40:00;;;;;;;0.20;0.00;;;;;;;;;;4979335;28;20040;-86
2023/12/24 05:42:38;;;;;;;0.20;0.10;;;;;;;;;;4989857;28;20042;-88
2023/12/24 05:45:07;;;;;;;0.20;0.00;;;;;;;;;;4990246;28;20046;-88
2023/12/24 05:47:33;;;;;;;0.20;0.00;;;;;;;;;;4978022;28;20494;-85
2023/12/24 05:50:20;;;;;;;0.20;0.00;;;;;;;;;;4972389;28;20041;-86
2023/12/24 05:52:46;;;;;;;1.05;1.00;;;;;;;;;;4994241;28;20047;-87
2023/12/24 05:55:12;;;;;;;0.20;0.10;;;;;;;;;;4993239;28;20061;-85
2023/12/24 05:57:47;;;;;;;0.20;0.00;;;;;;;;;;4978092;28;20068;-85
2023/12/24 06:00:23;;;;;;;0.20;0.00;;;;;;;;;;5008331;28;20088;-88
2023/12/24 06:02:54;;;;;;;0.20;0.10;;;;;;;;;;4978638;28;20138;-86
2023/12/24 06:05:24;;;;;;;0.20;0.00;;;;;;;;;;4992884;28;20033;-85
2023/12/24 06:07:50;;;;;;;0.20;0.00;;;;;;;;;;4980379;28;20116;-86
2023/12/24 06:10:17;;;;;;;0.20;0.10;;;;;;;;;;4979540;28;20401;-86
2023/12/24 06:12:53;;;;;;;0.20;0.00;;;;;;;;;;5011932;28;20042;-87
2023/12/24 06:15:22;;;;;;;0.20;0.00;;;;;;;;;;4977407;28;20038;-85
2023/12/24 06:17:51;;;;;;;0.20;0.00;;;;;;;;;;4994675;28;20034;-87
2023/12/24 06:20:17;;;;;;;0.20;0.10;;;;;;;;;;4990519;28;20046;-88
2023/12/24 06:23:02;;;;;;;0.20;0.08;;;;;;;;;;4980984;28;20041;-87
2023/12/24 06:25:33;;;;;;;0.20;0.10;;;;;;;;;;4976327;28;20371;-86
2023/12/24 06:28:02;;;;;;;0.20;0.00;;;;;;;;;;4989904;28;20038;-86
2023/12/24 06:30:28;;;;;;;0.20;0.00;;;;;;;;;;4972623;28;20030;-86
2023/12/24 06:32:54;;;;;;;0.20;0.10;;;;;;;;;;4993506;28;20049;-87
2023/12/24 06:35:27;;;;;;;0.20;0.00;;;;;;;;;;4976686;28;20663;-89
2023/12/24 06:37:53;;;;;;;0.20;0.00;;;;;;;;;;4973150;28;20494;-85
2023/12/24 06:40:19;;;;;;;0.20;0.10;;;;;;;;;;4974619;28;20049;-85
2023/12/24 06:42:45;;;;;;;0.20;0.10;;;;;;;;;;4971645;28;20034;-85
2023/12/24 06:45:15;;;;;;;0.20;0.10;;;;;;;;;;5013024;28;20118;-84
2023/12/24 06:47:44;;;;;;;0.20;0.10;;;;;;;;;;4994508;28;20045;-86
2023/12/24 06:50:16;;;;;;;0.20;0.10;;;;;;;;;;4988954;28;20036;-83
2023/12/24 06:52:44;;;;;;;0.20;0.08;;;;;;;;;;4978583;28;20044;-85
2023/12/24 06:55:12;;;;;;;0.20;0.10;;;;;;;;;;4987625;28;20082;-84
2023/12/24 06:57:44;;;;;;;0.20;0.00;;;;;;;;;;4979863;28;20046;-85
2023/12/24 07:00:11;;;;;;;0.20;0.08;;;;;;;;;;4987447;28;20046;-86
2023/12/24 07:02:37;;;;;;;0.20;0.10;;;;;;;;;;4976822;28;20049;-85
2023/12/24 07:05:09;;;;;;;0.20;0.00;;;;;;;;;;4992189;28;20042;-88
2023/12/24 07:07:56;;;;;;;0.20;0.03;;;;;;;;;;5006287;28;20044;-84
2023/12/24 07:10:36;;;;;;;0.20;0.00;;;;;;;;;;4988764;28;20034;-89
2023/12/24 07:13:08;;;;;;;0.20;0.10;;;;;;;;;;4990004;28;20121;-86
2023/12/24 07:15:39;;;;;;;0.20;0.00;;;;;;;;;;4976907;28;20513;-86
2023/12/24 07:18:14;;;;;;;2.72;0.80;;;;;;;;;;5017543;22;20108;-84
2023/12/24 07:20:40;;;;;;;0.20;0.20;;;;;;;;;;5025464;28;20076;-87
2023/12/24 07:23:06;;;;;;;0.20;0.10;;;;;;;;;;5004774;28;20128;-86
2023/12/24 07:25:32;;;;;;;0.20;0.10;;;;;;;;;;5027316;28;20083;-86
2023/12/24 07:27:58;;;;;;;0.20;0.10;;;;;;;;;;5007836;28;20464;-85
2023/12/24 07:30:27;;;;;;;0.20;0.10;;;;;;;;;;5012023;28;20037;-86
2023/12/24 07:32:53;;;;;;;0.20;0.10;;;;;;;;;;5004791;28;20060;-85
2023/12/24 07:35:24;;;;;;;0.20;0.00;;;;;;;;;;5024448;28;20052;-86
2023/12/24 07:37:50;;;;;;;0.20;0.00;;;;;;;;;;5010164;28;20130;-84
2023/12/24 07:40:16;;;;;;;0.20;0.05;;;;;;;;;;5008008;28;20052;-85
2023/12/24 07:42:42;;;;;;;0.20;0.10;;;;;;;;;;5005271;28;20128;-85
2023/12/24 07:45:09;;;;;;;0.20;0.03;;;;;;;;;;5007209;28;20045;-86
2023/12/24 07:47:35;;;;;;;0.30;0.10;;;;;;;;;;5024856;28;20039;-86
2023/12/24 07:50:04;;;;;;;0.80;0.80;;;;;;;;;;5012615;28;20127;-84
2023/12/24 07:52:32;;;;;;;0.20;0.00;;;;;;;;;;5007823;28;20314;-84
2023/12/24 07:55:07;;;;;;;0.40;0.20;;;;;;;;;;5009528;28;20501;-84
2023/12/24 07:57:47;;;;;;;0.20;0.00;;;;;;;;;;5025474;28;20409;-85
2023/12/24 08:03:13;;;;;;;0.20;0.10;;;;;;;;;;5023331;28;20135;-82
2023/12/24 08:05:39;;;;;;;0.40;0.20;;;;;;;;;;5010949;28;20041;-85
2023/12/24 08:08:06;;;;;;;0.20;0.00;;;;;;;;;;5025155;28;20451;-86
2023/12/24 08:10:43;;;;;;;0.20;0.10;;;;;;;;;;5005635;28;20072;-89
2023/12/24 08:13:09;;;;;;;0.20;0.00;;;;;;;;;;5022934;28;20136;-85
2023/12/24 08:15:35;;;;;;;1.27;1.17;;;;;;;;;;5006672;28;20064;-83
2023/12/24 08:18:04;;;;;;;0.20;0.10;;;;;;;;;;5007653;28;20034;-84
2023/12/24 08:20:30;;;;;;;0.20;0.10;;;;;;;;;;5007443;28;20076;-86
2023/12/24 08:22:56;;;;;;;0.20;0.10;;;;;;;;;;5006155;28;20041;-84
2023/12/24 08:25:22;;;;;;;2.60;1.38;;;;;;;;;;5004524;28;20045;-87
2023/12/24 08:27:48;;;;;;;0.20;0.00;;;;;;;;;;5002763;28;20071;-86
2023/12/24 08:30:14;;;;;;;0.20;0.10;;;;;;;;;;5024133;28;20385;-87
2023/12/24 08:32:47;;;;;;;0.20;0.10;;;;;;;;;;5010613;28;20044;-83
2023/12/24 08:35:19;;;;;;;0.20;0.00;;;;;;;;;;5006626;28;20037;-83
2023/12/24 08:37:48;;;;;;;0.20;0.10;;;;;;;;;;5009459;28;20040;-87
2023/12/24 08:40:14;;;;;;;0.20;0.10;;;;;;;;;;5004292;28;20047;-85
2023/12/24 08:42:42;;;;;;;0.20;0.10;;;;;;;;;;5025817;28;20037;-84
2023/12/24 08:45:12;;;;;;;0.20;0.00;;;;;;;;;;5008677;28;20067;-85
2023/12/24 08:47:39;;;;;;;0.20;0.00;;;;;;;;;;5003423;28;20405;-85
2023/12/24 08:50:05;;;;;;;0.20;0.10;;;;;;;;;;5005377;28;20049;-84
2023/12/24 08:52:35;;;;;;;0.57;0.32;;;;;;;;;;5030708;28;20500;-87
2023/12/24 08:55:06;;;;;;;0.20;0.00;;;;;;;;;;5005518;28;20072;-87
2023/12/24 08:57:32;;;;;;;0.22;0.20;;;;;;;;;;5005818;28;20098;-84
2023/12/24 08:59:58;;;;;;;0.20;0.00;;;;;;;;;;5005767;28;20048;-84
2023/12/24 09:02:24;;;;;;;0.20;0.10;;;;;;;;;;5005357;28;20045;-86
2023/12/24 09:04:50;;;;;;;0.20;0.00;;;;;;;;;;5021554;28;20044;-85
2023/12/24 09:07:19;;;;;;;0.20;0.10;;;;;;;;;;5026997;28;20041;-85
2023/12/24 09:09:52;;;;;;;0.65;0.30;;;;;;;;;;5007478;28;21488;-86
2023/12/24 09:12:21;;;;;;;0.20;0.00;;;;;;;;;;5022890;28;20424;-87
2023/12/24 09:14:56;;;;;;;0.20;0.00;;;;;;;;;;5023722;28;20045;-86
2023/12/24 09:17:22;;;;;;;0.63;0.63;;;;;;;;;;5004831;28;20532;-84
2023/12/24 09:19:51;;;;;;;0.20;0.00;;;;;;;;;;5008727;28;20519;-84
2023/12/24 09:22:17;;;;;;;0.20;0.00;;;;;;;;;;5014291;28;20044;-83
2023/12/24 09:24:43;;;;;;;0.20;0.10;;;;;;;;;;5007682;28;20043;-82
2023/12/24 09:27:12;;;;;;;0.20;0.03;;;;;;;;;;5004778;28;20037;-84
2023/12/24 09:29:43;;;;;;;0.65;0.63;;;;;;;;;;5012575;28;20123;-85
2023/12/24 09:32:18;;;;;;;0.20;0.10;;;;;;;;;;5026956;28;20049;-85
2023/12/24 09:34:47;;;;;;;0.28;0.17;;;;;;;;;;5029723;28;20044;-83
2023/12/24 09:37:16;;;;;;;0.20;0.00;;;;;;;;;;5011213;28;20381;-84
2023/12/24 09:39:48;;;;;;;0.20;0.00;;;;;;;;;;5009712;28;20036;-85
2023/12/24 09:42:14;;;;;;;0.20;0.00;;;;;;;;;;5006734;28;20044;-85
2023/12/24 09:44:40;;;;;;;0.70;0.63;;;;;;;;;;5005325;28;20059;-83
2023/12/24 09:47:06;;;;;;;0.20;0.00;;;;;;;;;;5027655;28;20409;-84
2023/12/24 09:49:35;;;;;;;0.20;0.00;;;;;;;;;;5028145;28;20179;-85
2023/12/24 09:52:07;;;;;;;0.20;0.10;;;;;;;;;;5023402;28;20044;-84
2023/12/24 09:54:48;;;;;;;0.20;0.10;;;;;;;;;;5007818;28;20296;-86
2023/12/24 09:57:17;;;;;;;0.20;0.00;;;;;;;;;;5010823;28;20053;-84
2023/12/24 09:59:46;;;;;;;0.20;0.00;;;;;;;;;;5031151;28;20653;-86
2023/12/24 10:02:18;;;;;;;0.20;0.00;;;;;;;;;;5010994;28;20183;-86
2023/12/24 10:04:44;;;;;;;0.20;0.10;;;;;;;;;;5010552;28;20417;-88
2023/12/24 10:07:13;;;;;;;0.20;0.10;;;;;;;;;;5010676;28;20314;-85
2023/12/24 10:09:47;;;;;;;0.20;0.10;;;;;;;;;;5013953;28;20049;-85
2023/12/24 10:12:13;;;;;;;0.20;0.10;;;;;;;;;;5006749;28;20047;-86
2023/12/24 10:14:41;;;;;;;0.20;0.10;;;;;;;;;;5005839;28;20683;-85
2023/12/24 10:17:07;;;;;;;0.20;0.00;;;;;;;;;;5009958;28;20052;-84
2023/12/24 10:19:36;;;;;;;0.20;0.10;;;;;;;;;;5009947;28;20460;-84
2023/12/24 10:22:12;;;;;;;0.20;0.00;;;;;;;;;;5006235;28;20037;-85
2023/12/24 10:24:50;;;;;;;0.20;0.20;;;;;;;;;;5007707;28;20034;-84
2023/12/24 10:27:19;;;;;;;0.20;0.00;;;;;;;;;;5023516;28;20033;-85
2023/12/24 10:30:07;;;;;;;0.20;0.00;;;;;;;;;;5013004;28;20096;-87
2023/12/24 10:32:33;;;;;;;0.20;0.00;;;;;;;;;;5029161;28;20079;-86
2023/12/24 10:35:03;;;;;;;0.20;0.10;;;;;;;;;;5006524;28;20045;-86
2023/12/24 10:37:33;;;;;;;0.20;0.00;;;;;;;;;;5004563;28;20029;-86
2023/12/24 10:40:12;;;;;;;0.20;0.10;;;;;;;;;;5004008;28;20077;-86
2023/12/24 10:42:38;;;;;;;0.20;0.00;;;;;;;;;;5022340;28;20544;-86
2023/12/24 10:45:11;;;;;;;0.20;0.00;;;;;;;;;;5006378;28;20049;-85
2023/12/24 10:47:58;;;;;;;0.20;0.10;;;;;;;;;;4999791;28;20060;-83
2023/12/24 10:50:33;;;;;;;0.20;0.00;;;;;;;;;;5018362;28;20114;-84
2023/12/24 10:53:02;;;;;;;0.20;0.00;;;;;;;;;;5022758;28;20041;-85
2023/12/24 10:55:33;;;;;;;0.20;0.10;;;;;;;;;;5009127;28;20042;-86
2023/12/24 10:58:07;;;;;;;0.20;0.00;;;;;;;;;;5031633;28;20049;-88
2023/12/24 11:00:39;;;;;;;0.20;0.10;;;;;;;;;;5027274;28;20582;-86
2023/12/24 11:03:25;;;;;;;0.20;0.00;;;;;;;;;;5052934;28;20045;-85
2023/12/24 11:05:51;;;;;;;0.20;0.10;;;;;;;;;;5012748;28;20485;-83
2023/12/24 11:08:24;;;;;;;0.20;0.00;;;;;;;;;;5034521;28;20048;-85
2023/12/24 11:11:03;;;;;;;0.20;0.00;;;;;;;;;;5027616;28;21042;-86
2023/12/24 11:13:32;;;;;;;0.20;0.00;;;;;;;;;;5018109;28;20043;-83
2023/12/24 11:16:09;;;;;;;0.20;0.13;;;;;;;;;;5036540;28;20055;-86
2023/12/24 11:18:41;;;;;;;0.20;0.00;;;;;;;;;;5010331;28;20079;-86
2023/12/24 11:21:07;;;;;;;0.30;0.10;;;;;;;;;;5027579;28;20049;-82
2023/12/24 11:24:00;;;;;;;7.47;1.48;;;;;;;;;;5023853;28;20041;-87
2023/12/24 11:26:35;;;;;;;0.30;0.30;;;;;;;;;;5004919;28;20049;-86
2023/12/24 11:29:29;;;;;;;0.20;0.10;;;;;;;;;;5004755;28;20049;-88
2023/12/24 11:32:19;;;;;;;0.20;0.00;;;;;;;;;;5020655;28;20060;-87
2023/12/24 11:34:58;;;;;;;0.20;0.10;;;;;;;;;;5007669;28;20499;-83
2023/12/24 11:37:30;;;;;;;0.20;0.00;;;;;;;;;;5006794;28;20049;-88
2023/12/24 11:40:02;;;;;;;0.20;0.05;;;;;;;;;;5021356;28;20467;-86
2023/12/24 11:43:03;;;;;;;0.30;0.28;;;;;;;;;;5025324;28;20053;-86
2023/12/24 11:45:55;;;;;;;0.20;0.00;;;;;;;;;;5009492;28;20041;-85
2023/12/24 11:48:34;;;;;;;0.20;0.10;;;;;;;;;;5020184;28;20049;-85
2023/12/24 11:51:10;;;;;;;0.20;0.00;;;;;;;;;;5006379;28;20800;-88
2023/12/24 11:53:44;;;;;;;0.20;0.00;;;;;;;;;;5027293;28;20089;-85
2023/12/24 11:56:29;;;;;;;0.20;0.00;;;;;;;;;;5014631;28;20052;-84
2023/12/24 11:59:06;;;;;;;0.20;0.10;;;;;;;;;;5003814;28;20041;-86
2023/12/24 12:01:43;;;;;;;0.20;0.00;;;;;;;;;;5004823;28;20041;-85
2023/12/24 12:04:35;;;;;;;0.20;0.10;;;;;;;;;;5016529;28;20037;-86
2023/12/24 12:07:08;;;;;;;0.20;0.00;;;;;;;;;;4998738;28;20037;-86
2023/12/24 12:09:34;;;;;;;;;;;;;;;;;;5002505;28;20037;-83
2023/12/24 12:12:03;;;;;;;0.35;0.17;;;;;;;;;;5019129;28;20023;-88
2023/12/24 12:14:29;;;;;;;0.20;0.03;;;;;;;;;;5006504;28;20072;-83
2023/12/24 12:17:03;;;;;;;0.25;0.05;;;;;;;;;;5002918;28;20510;-86
2023/12/24 12:19:49;;;;;;;0.20;0.00;;;;;;;;;;5021936;28;20044;-85
2023/12/24 12:22:16;;;;;;;0.20;0.00;;;;;;;;;;5022040;28;22211;-85
2023/12/24 12:24:54;;;;;;;0.20;0.00;;;;;;;;;;4999458;28;20347;-86
2023/12/24 12:27:26;;;;;;;0.95;0.35;;;;;;;;;;5022221;28;20124;-86
2023/12/24 12:29:57;;;;;;;0.20;0.10;;;;;;;;;;5027227;28;20519;-87
2023/12/24 12:32:36;;;;;;;0.20;0.00;;;;;;;;;;5009626;28;20370;-86
2023/12/24 12:35:34;;;;;;;0.20;0.05;;;;;;;;;;5004328;28;20041;-87
2023/12/24 12:38:15;;;;;;;0.20;0.00;;;;;;;;;;5027112;28;20444;-88
2023/12/24 12:40:56;;;;;;;0.85;0.85;;;;;;;;;;5017949;28;20052;-88
2023/12/24 12:43:22;;;;;;;0.20;0.00;;;;;;;;;;5040028;28;20124;-87
2023/12/24 12:45:59;;;;;;;0.20;0.00;;;;;;;;;;5018908;28;20037;-86
2023/12/24 12:48:26;;;;;;;0.20;0.00;;;;;;;;;;5021564;28;20034;-83
2023/12/24 12:50:58;;;;;;;0.20;0.00;;;;;;;;;;5022506;28;20045;-86
2023/12/24 12:53:27;;;;;;;0.20;0.08;;;;;;;;;;5025273;28;20045;-86
2023/12/24 12:56:01;;;;;;;0.45;0.20;;;;;;;;;;5025123;28;20056;-86
2023/12/24 12:58:50;;;;;;;0.20;0.00;;;;;;;;;;5007876;28;20063;-87
2023/12/24 13:01:22;;;;;;;0.20;0.00;;;;;;;;;;5008006;28;20061;-85
2023/12/24 13:03:58;;;;;;;0.20;0.00;;;;;;;;;;5024705;28;20049;-85
2023/12/24 13:06:24;;;;;;;0.20;0.00;;;;;;;;;;5011362;28;20044;-87
2023/12/24 13:09:30;;;;;;;0.20;0.00;;;;;;;;;;5030957;28;20044;-86
2023/12/24 13:15:24;;;;;;;0.20;0.10;;;;;;;;;;4981379;28;20520;-84
2023/12/24 13:18:28;;;;;;;0.20;0.00;;;;;;;;;;5021192;28;20068;-85
2023/12/24 13:21:08;;;;;;;1.38;1.27;;;;;;;;;;5057956;23;20140;-87
2023/12/24 13:23:34;;;;;;;0.20;0.00;;;;;;;;;;5025963;28;20045;-87
2023/12/24 13:26:09;;;;;;;0.20;0.03;;;;;;;;;;5012359;28;20037;-86
2023/12/24 13:28:44;;;;;;;0.20;0.00;;;;;;;;;;5047780;28;20053;-86
2023/12/24 13:31:13;;;;;;;0.20;0.00;;;;;;;;;;5006974;28;20052;-84
2023/12/24 13:33:42;;;;;;;0.20;0.00;;;;;;;;;;5002624;28;20038;-86
2023/12/24 13:36:11;;;;;;;0.43;0.40;;;;;;;;;;5022719;28;20049;-87
2023/12/24 13:38:37;;;;;;;0.20;0.20;;;;;;;;;;5000892;28;20144;-86
2023/12/24 13:41:06;;;;;;;0.25;0.25;;;;;;;;;;4989030;28;20045;-88
2023/12/24 13:43:32;;;;;;;0.20;0.00;;;;;;;;;;4993657;28;22135;-88
2023/12/24 13:45:58;;;;;;;0.20;0.10;;;;;;;;;;5009899;28;20497;-84
2023/12/24 13:48:27;;;;;;;0.20;0.00;;;;;;;;;;5011010;28;20114;-86
2023/12/24 13:50:57;;;;;;;0.90;0.75;;;;;;;;;;5008905;28;20112;-84
2023/12/24 13:53:31;;;;;;;0.32;0.20;;;;;;;;;;5012616;28;20095;-86
2023/12/24 13:55:59;;;;;;;0.20;0.00;;;;;;;;;;4997571;28;20127;-85
2023/12/24 13:58:27;;;;;;;0.20;0.10;;;;;;;;;;4996520;28;20049;-83
2023/12/24 14:00:53;;;;;;;0.40;0.15;;;;;;;;;;5025885;28;20588;-83
2023/12/24 14:03:31;;;;;;;0.20;0.00;;;;;;;;;;5025209;28;20070;-82
2023/12/24 14:05:58;;;;;;;0.20;0.00;;;;;;;;;;5011140;28;20421;-83
2023/12/24 14:08:27;;;;;;;0.20;0.00;;;;;;;;;;5013368;28;20033;-86
2023/12/24 14:10:54;;;;;;;0.20;0.10;;;;;;;;;;4996189;28;20042;-85
2023/12/24 14:13:22;;;;;;;0.20;0.00;;;;;;;;;;5022254;28;20118;-87
2023/12/24 14:15:48;;;;;;;0.20;0.00;;;;;;;;;;4984844;28;20583;-84
2023/12/24 14:18:20;;;;;;;0.20;0.00;;;;;;;;;;5005484;28;20472;-84
2023/12/24 14:20:46;;;;;;;0.20;0.00;;;;;;;;;;4990625;28;20041;-83
2023/12/24 14:23:12;;;;;;;0.20;0.00;;;;;;;;;;5010500;28;20037;-86
2023/12/24 14:25:38;;;;;;;0.20;0.00;;;;;;;;;;4992647;28;20045;-84
2023/12/24 14:28:19;;;;;;;0.20;0.00;;;;;;;;;;5013352;28;20033;-86
2023/12/24 14:30:48;;;;;;;0.20;0.00;;;;;;;;;;5007010;28;20128;-85
2023/12/24 14:33:14;;;;;;;0.20;0.00;;;;;;;;;;4986763;28;20076;-87
2023/12/24 14:35:49;;;;;;;0.20;0.00;;;;;;;;;;4988722;28;20718;-86
2023/12/24 14:38:16;;;;;;;0.20;0.00;;;;;;;;;;5010803;28;20045;-86
2023/12/24 14:40:48;;;;;;;0.20;0.10;;;;;;;;;;5004408;28;20042;-86
2023/12/24 14:43:20;;;;;;;0.20;0.00;;;;;;;;;;5006802;28;20049;-85
2023/12/24 14:45:52;;;;;;;0.20;0.10;;;;;;;;;;5003151;28;20041;-85
2023/12/24 14:48:23;;;;;;;0.20;0.05;;;;;;;;;;5022232;28;20041;-84
2023/12/24 14:50:52;;;;;;;0.20;0.00;;;;;;;;;;5006394;28;20456;-83
2023/12/24 14:53:30;;;;;;;0.20;0.05;;;;;;;;;;5007945;28;20121;-83
2023/12/24 14:56:02;;;;;;;0.20;0.00;;;;;;;;;;4990794;28;20373;-88
2023/12/24 14:58:31;;;;;;;0.20;0.00;;;;;;;;;;4987818;28;20498;-86
2023/12/24 15:01:10;;;;;;;0.20;0.10;;;;;;;;;;5002303;28;20057;-88
2023/12/24 15:03:40;;;;;;;0.20;0.00;;;;;;;;;;5017025;28;20041;-86
2023/12/24 15:06:09;;;;;;;0.20;0.00;;;;;;;;;;5015367;28;20683;-87
2023/12/24 15:08:44;;;;;;;0.20;0.00;;;;;;;;;;4989081;28;20064;-85
2023/12/24 15:11:17;;;;;;;0.20;0.10;;;;;;;;;;4998142;28;20045;-84
2023/12/24 15:13:50;;;;;;;0.20;0.08;;;;;;;;;;5025777;28;20053;-85
2023/12/24 15:16:25;;;;;;;0.20;0.08;;;;;;;;;;5019620;28;20041;-88
2023/12/24 15:18:57;;;;;;;0.20;0.00;;;;;;;;;;5008427;28;20076;-85
2023/12/24 15:21:35;;;;;;;0.20;0.00;;;;;;;;;;5009186;28;20390;-88